Accueil
METAR-TAF:

METAR-TAF

Aéroports :

Aéroport de Saint-Sébastien

Saint-Sébastien, Espagne

latitude: 43-21N, longitude: 001-48W, altitude: 5 m

Observation

Le bulletin a été fait il y a 33 minutes, à 02:30 UTC
Vent 2 kt de direction variable
Température 7°C
Humidité 87%
Pression 1011 hPa
Visibilité: 8000 m
Nuages fragmentés à une hauteur de 3400 ft
Ciel couvert à une hauteur de 4200 ft

METAR: LESO 030230Z AUTO VRB02KT 8000 BKN034 OVC042 07/05 Q1011

Heure: 04:03 (03:03 UTC)

Prévision

Le bulletin a été fait il y a 4 heures et 3 minutes, à 23:00 UTC
Prévision valable du 03 à 00 UTC au 03 à 24 UTC
Vent 4 kt de direction variable
Visibilité 10 km ou plus
Nuages fragmentés à une hauteur de 4000 ft
Probabilité 40% :
Temporairement
du 03 à 04 UTC au 03 à 24 UTC
Visibilité: 3000 m
Nuages fragmentés à une hauteur de 1000 ft
pluie

TAF: LESO 022300Z 0300/0324 VRB04KT 9999 BKN040 TX07/0315Z TN04/0324Z PROB40 TEMPO 0304/0324 3000 RA BKN010

Observations et prévisions météorologiques de plus de 4000 aéroports (messages METAR et TAF).

Les stations disponibles sont représentées par des disques jaunes et rouges sur la carte.

Passer la souris dessus pour voir le nom de la station.

Cliquer dessus pour voir les observations et prévisions météorologiques.

Pour changer de carte: cliquez sur les boutons verts avec une croix noire pour zoomer, sur le bouton vert avec un tiret pour effectuer un zoom arrière, ou sur les flèches vertes pour les cartes adjacentes.


METAR-TAF: